createdAt,value
2022-08-25T00:02:03.471Z,95256.19
2022-08-25T00:04:36.422Z,95260.19
2022-08-25T00:07:06.261Z,95260.66
2022-08-25T00:09:35.460Z,95267.09
2022-08-25T00:12:05.451Z,95265.25
2022-08-25T00:14:37.670Z,95262.81
2022-08-25T00:17:06.651Z,95270.56
2022-08-25T00:19:36.922Z,95277.47
2022-08-25T00:22:05.460Z,95258.41
2022-08-25T00:24:32.780Z,95272.81
2022-08-25T00:27:01.997Z,95267.69
2022-08-25T00:29:30.590Z,95264.84
2022-08-25T00:31:58.640Z,95251.75
2022-08-25T00:34:34.580Z,95256.59
2022-08-25T00:37:02.739Z,95260.78
2022-08-25T00:39:30.771Z,95242.22
2022-08-25T00:41:58.520Z,95258.41
2022-08-25T00:44:29.180Z,95257.94
2022-08-25T00:47:01.460Z,95251.88
2022-08-25T00:49:49.912Z,95258.63
2022-08-25T00:52:22.461Z,95251.28
2022-08-25T00:54:49.820Z,95253.88
2022-08-25T00:57:25.486Z,95255.66
2022-08-25T01:00:06.879Z,95250.22
2022-08-25T01:02:34.248Z,95251.16
2022-08-25T01:05:01.560Z,95238.03
2022-08-25T01:07:29.660Z,95248.16
2022-08-25T01:09:57.040Z,95244.78
2022-08-25T01:12:24.390Z,95241.88
2022-08-25T01:14:52.940Z,95247.06
2022-08-25T01:17:22.080Z,95228.78
2022-08-25T01:19:49.480Z,95243.69
2022-08-25T01:22:17.580Z,95234.84
2022-08-25T01:24:59.430Z,95243.34
2022-08-25T01:27:27.329Z,95241.88
2022-08-25T01:29:55.531Z,95244.28
2022-08-25T01:32:22.899Z,95254.41
2022-08-25T01:34:51.856Z,95237.41
2022-08-25T01:37:19.451Z,95245.75
2022-08-25T01:39:46.886Z,95239.03
2022-08-25T01:42:34.880Z,95246.25
2022-08-25T01:45:02.329Z,95236.34
2022-08-25T01:47:29.940Z,95244.03
2022-08-25T01:49:57.543Z,95242.44
2022-08-25T01:52:33.549Z,95240.97
2022-08-25T01:55:01.309Z,95239.38
2022-08-25T01:57:32.011Z,95239.53
2022-08-25T01:59:59.509Z,95219.84
2022-08-25T02:02:27.123Z,95236.34
2022-08-25T02:04:58.919Z,95225.28
2022-08-25T02:07:27.605Z,95232.31
2022-08-25T02:09:54.949Z,95225.75
2022-08-25T02:12:29.289Z,95230.69
2022-08-25T02:14:57.170Z,95202.84
2022-08-25T02:17:24.814Z,95231.16
2022-08-25T02:19:52.269Z,95224.78
2022-08-25T02:22:19.869Z,95222.34
2022-08-25T02:24:48.276Z,95218.19
2022-08-25T02:27:15.909Z,95217.56
2022-08-25T02:29:43.489Z,95225.38
2022-08-25T02:32:10.970Z,95226.50
2022-08-25T02:34:40.099Z,95219.13
2022-08-25T02:37:08.849Z,95218.78
2022-08-25T02:39:36.932Z,95219.31
2022-08-25T02:42:06.499Z,95207.44
2022-08-25T02:44:35.679Z,95222.06
2022-08-25T02:47:03.369Z,95215.78
2022-08-25T02:49:32.370Z,95223.94
2022-08-25T02:52:03.489Z,95221.38
2022-08-25T02:54:31.100Z,95209.22
2022-08-25T02:56:58.411Z,95207.63
2022-08-25T02:59:26.339Z,95221.56
2022-08-25T03:01:53.799Z,95215.78
2022-08-25T03:04:21.344Z,95223.63
2022-08-25T03:06:48.939Z,95225.72
2022-08-25T03:09:16.900Z,95225.38
2022-08-25T03:11:44.279Z,95216.09
2022-08-25T03:14:11.949Z,95209.03
2022-08-25T03:16:40.369Z,95223.78
2022-08-25T03:19:09.339Z,95220.25
2022-08-25T03:21:38.462Z,95217.03
2022-08-25T03:24:07.356Z,95220.03
2022-08-25T03:26:53.359Z,95216.50
2022-08-25T03:29:24.140Z,95228.72
2022-08-25T03:31:53.645Z,95216.22
2022-08-25T03:34:22.679Z,95213.63
2022-08-25T03:36:52.973Z,95214.28
2022-08-25T03:39:23.042Z,95222.00
2022-08-25T03:41:51.889Z,95204.19
2022-08-25T03:44:21.769Z,95203.56
2022-08-25T03:46:52.161Z,95214.09
2022-08-25T03:49:23.077Z,95212.69
2022-08-25T03:51:53.320Z,95217.19
2022-08-25T03:54:23.489Z,95207.56
2022-08-25T03:56:50.909Z,95216.22
2022-08-25T03:59:19.510Z,95217.34
2022-08-25T04:01:52.664Z,95209.47
2022-08-25T04:04:22.129Z,95206.88
2022-08-25T04:06:49.460Z,95214.56
2022-08-25T04:09:16.821Z,95214.41
2022-08-25T04:11:44.388Z,95202.06
2022-08-25T04:14:12.986Z,95212.97
2022-08-25T04:16:44.553Z,95204.31
2022-08-25T04:19:12.439Z,95204.63
2022-08-25T04:21:41.009Z,95210.06
2022-08-25T04:24:11.011Z,95210.97
2022-08-25T04:26:42.640Z,95203.00
2022-08-25T04:29:12.150Z,95197.69
2022-08-25T04:31:42.071Z,95184.25
2022-08-25T04:34:14.800Z,95195.56
2022-08-25T04:36:59.560Z,95209.66
2022-08-25T04:39:26.819Z,95189.31
2022-08-25T04:41:54.202Z,95184.59
2022-08-25T04:44:21.879Z,95197.66
2022-08-25T04:46:50.139Z,95195.19
2022-08-25T04:49:17.609Z,95193.94
2022-08-25T04:51:46.120Z,95179.03
2022-08-25T04:54:17.168Z,95199.03
2022-08-25T04:56:44.869Z,95191.50
2022-08-25T04:59:18.509Z,95184.81
2022-08-25T05:01:47.361Z,95197.16
2022-08-25T05:04:28.311Z,95189.44
2022-08-25T05:06:58.180Z,95191.22
2022-08-25T05:09:26.819Z,95190.91
2022-08-25T05:11:55.113Z,95184.50
2022-08-25T05:14:25.625Z,95183.22
2022-08-25T05:16:57.599Z,95184.19
2022-08-25T05:19:25.429Z,95180.78
2022-08-25T05:21:52.871Z,95181.00
2022-08-25T05:24:21.799Z,95178.81
2022-08-25T05:26:49.379Z,95175.00
2022-08-25T05:29:17.020Z,95184.06
2022-08-25T05:31:49.999Z,95169.75
2022-08-25T05:34:19.790Z,95178.50
2022-08-25T05:36:48.770Z,95178.44
2022-08-25T05:39:16.470Z,95168.66
2022-08-25T05:41:44.059Z,95164.44
2022-08-25T05:44:13.860Z,95180.63
2022-08-25T05:46:42.480Z,95176.50
2022-08-25T05:49:10.330Z,95176.38
2022-08-25T05:51:38.040Z,95183.66
2022-08-25T05:54:06.009Z,95176.25
2022-08-25T05:56:33.300Z,95166.66
2022-08-25T05:59:00.962Z,95160.41
2022-08-25T06:01:47.991Z,95178.97
2022-08-25T06:04:18.511Z,95181.16
2022-08-25T06:06:45.991Z,95182.78
2022-08-25T06:09:13.259Z,95171.63
2022-08-25T06:11:41.881Z,95186.16
2022-08-25T06:14:10.509Z,95182.69
2022-08-25T06:16:39.302Z,95179.03
2022-08-25T06:19:09.960Z,95183.53
2022-08-25T06:21:41.600Z,95187.63
2022-08-25T06:24:15.250Z,95188.22
2022-08-25T06:26:44.402Z,95184.16
2022-08-25T06:29:14.346Z,95192.28
2022-08-25T06:31:43.535Z,95186.94
2022-08-25T06:34:11.970Z,95194.22
2022-08-25T06:36:40.644Z,95183.59
2022-08-25T06:39:10.602Z,95195.78
2022-08-25T06:41:39.124Z,95195.69
2022-08-25T06:44:11.229Z,95193.53
2022-08-25T06:46:39.550Z,95196.50
2022-08-25T06:49:10.320Z,95197.09
2022-08-25T06:51:40.230Z,95191.03
2022-08-25T06:54:10.307Z,95194.94
2022-08-25T06:56:40.151Z,95191.72
2022-08-25T06:59:10.190Z,95184.66
2022-08-25T07:01:37.942Z,95183.44
2022-08-25T07:04:11.848Z,95186.16
2022-08-25T07:06:41.300Z,95182.75
2022-08-25T07:09:10.111Z,95187.63
2022-08-25T07:11:38.490Z,95187.75
2022-08-25T07:14:07.741Z,95185.47
2022-08-25T07:16:36.089Z,95181.69
2022-08-25T07:19:05.474Z,95175.88
2022-08-25T07:21:35.882Z,95173.91
2022-08-25T07:24:12.570Z,95187.06
2022-08-25T07:26:42.641Z,95174.50
2022-08-25T07:32:10.962Z,95172.56
2022-08-25T07:34:56.760Z,95180.00
2022-08-25T07:37:47.788Z,95180.88
2022-08-25T07:40:16.364Z,95180.88
2022-08-25T07:42:46.341Z,95168.41
2022-08-25T07:45:17.279Z,95168.25
2022-08-25T07:47:51.735Z,95180.13
2022-08-25T07:50:19.881Z,95170.19
2022-08-25T07:52:53.898Z,95180.84
2022-08-25T07:55:27.144Z,95171.09
2022-08-25T07:57:57.059Z,95175.38
2022-08-25T08:00:28.106Z,95175.81
2022-08-25T08:02:59.329Z,95167.09
2022-08-25T08:05:28.429Z,95165.03
2022-08-25T08:07:57.392Z,95171.75
2022-08-25T08:10:47.909Z,95162.94
2022-08-25T08:13:18.070Z,95170.16
2022-08-25T08:15:47.427Z,95169.94
2022-08-25T08:18:16.286Z,95160.16
2022-08-25T08:20:50.990Z,95162.00
2022-08-25T08:23:18.780Z,95157.97
2022-08-25T08:25:46.211Z,95163.69
2022-08-25T08:28:13.659Z,95158.13
2022-08-25T08:30:53.057Z,95163.41
2022-08-25T08:33:23.022Z,95159.19
2022-08-25T08:36:05.113Z,95167.38
2022-08-25T08:38:34.848Z,95160.09
2022-08-25T08:41:27.290Z,95154.63
2022-08-25T08:44:06.852Z,95156.22
2022-08-25T08:46:50.608Z,95154.84
2022-08-25T08:49:55.610Z,95155.91
2022-08-25T08:52:32.099Z,95152.88
2022-08-25T08:55:08.179Z,95148.69
2022-08-25T08:57:45.173Z,95141.00
2022-08-25T09:00:13.781Z,95141.09
2022-08-25T09:03:15.079Z,95144.38
2022-08-25T09:05:55.311Z,95134.53
2022-08-25T09:08:22.999Z,95135.31
2022-08-25T09:11:10.344Z,95135.34
2022-08-25T09:14:02.220Z,95140.09
2022-08-25T09:17:00.029Z,95143.59
2022-08-25T09:19:46.065Z,95127.22
2022-08-25T09:22:34.971Z,95141.25
2022-08-25T09:25:08.859Z,95140.19
2022-08-25T09:28:17.910Z,95131.16
2022-08-25T09:30:53.946Z,95127.00
2022-08-25T09:33:24.173Z,95126.34
2022-08-25T09:35:54.290Z,95114.19
2022-08-25T09:38:29.241Z,95122.34
2022-08-25T09:41:00.907Z,95125.72
2022-08-25T09:43:38.730Z,95123.75
2022-08-25T09:46:16.566Z,95123.72
2022-08-25T09:48:56.837Z,95112.66
2022-08-25T09:51:42.426Z,95116.03
2022-08-25T09:54:13.321Z,95113.97
2022-08-25T09:57:02.170Z,95113.50
2022-08-25T09:59:35.694Z,95107.44
2022-08-25T10:02:20.583Z,95103.16
2022-08-25T10:04:48.057Z,95102.38
2022-08-25T10:07:35.999Z,95104.31
2022-08-25T10:10:16.680Z,95102.41
2022-08-25T10:12:51.182Z,95092.69
2022-08-25T10:15:29.521Z,95109.81
2022-08-25T10:18:20.299Z,95100.44
2022-08-25T10:21:11.920Z,95099.28
2022-08-25T10:23:48.672Z,95086.63
2022-08-25T10:26:30.317Z,95085.53
2022-08-25T10:29:14.640Z,95090.59
2022-08-25T10:31:52.291Z,95084.44
2022-08-25T10:34:56.331Z,95084.09
2022-08-25T10:37:44.720Z,95084.09
2022-08-25T10:40:27.934Z,95081.91
2022-08-25T10:43:11.509Z,95066.16
2022-08-25T10:45:52.541Z,95077.34
2022-08-25T10:48:35.119Z,95064.59
2022-08-25T10:51:41.299Z,95075.94
2022-08-25T10:54:40.619Z,95071.00
2022-08-25T10:57:41.329Z,95055.41
2022-08-25T11:00:16.550Z,95057.28
2022-08-25T11:03:00.219Z,95062.97
2022-08-25T11:05:40.547Z,95063.84
2022-08-25T11:08:32.689Z,95055.97
2022-08-25T11:11:24.482Z,95058.06
2022-08-25T11:14:06.397Z,95056.78
2022-08-25T11:16:58.963Z,95050.53
2022-08-25T11:19:42.188Z,95035.25
2022-08-25T11:22:27.571Z,95044.22
2022-08-25T11:25:24.131Z,95035.06
2022-08-25T11:28:14.879Z,95037.34
2022-08-25T11:30:44.720Z,95036.53
2022-08-25T11:33:19.492Z,95029.44
2022-08-25T11:35:56.140Z,95031.88
2022-08-25T11:38:48.210Z,95021.06
2022-08-25T11:41:18.350Z,95025.94
2022-08-25T11:43:54.479Z,95031.31
2022-08-25T11:46:41.271Z,95021.53
2022-08-25T11:49:35.706Z,95012.59
2022-08-25T11:52:05.319Z,95017.59
2022-08-25T11:54:45.797Z,95016.78
2022-08-25T11:57:16.669Z,95013.44
2022-08-25T11:59:49.992Z,95008.78
2022-08-25T12:02:50.780Z,95010.63
2022-08-25T12:05:22.246Z,95013.84
2022-08-25T12:08:12.759Z,95009.84
2022-08-25T12:11:11.103Z,95002.69
2022-08-25T12:13:39.792Z,94998.38
2022-08-25T12:16:27.783Z,95005.41
2022-08-25T12:19:26.849Z,95004.41
2022-08-25T12:22:03.270Z,94992.63
2022-08-25T12:24:53.710Z,94994.63
2022-08-25T12:27:56.121Z,94990.25
2022-08-25T12:30:46.026Z,94987.31
2022-08-25T12:34:00.649Z,94991.53
2022-08-25T12:36:31.709Z,94987.06
2022-08-25T12:39:17.469Z,94985.19
2022-08-25T12:41:58.895Z,94982.13
2022-08-25T12:44:41.357Z,94977.31
2022-08-25T12:47:23.677Z,94978.81
2022-08-25T12:49:51.640Z,94979.44
2022-08-25T12:52:27.836Z,94983.69
2022-08-25T12:55:03.960Z,94972.81
2022-08-25T12:57:58.074Z,94969.38
2022-08-25T13:03:04.427Z,94971.50
2022-08-25T13:05:45.242Z,94971.50
2022-08-25T13:08:51.654Z,94964.94
2022-08-25T13:11:25.140Z,94966.41
2022-08-25T13:14:05.249Z,94961.53
2022-08-25T13:16:34.010Z,94965.56
2022-08-25T13:19:06.758Z,94961.41
2022-08-25T13:21:39.202Z,94967.72
2022-08-25T13:24:14.692Z,94947.63
2022-08-25T13:26:48.343Z,94956.47
2022-08-25T13:29:25.379Z,94964.22
2022-08-25T13:31:57.258Z,94972.47
2022-08-25T13:34:35.064Z,94968.84
2022-08-25T13:37:31.442Z,94952.56
2022-08-25T13:40:26.845Z,94974.94
2022-08-25T13:43:05.803Z,94975.75
2022-08-25T13:45:43.453Z,94977.25
2022-08-25T13:48:22.599Z,94963.38
2022-08-25T13:50:54.379Z,94961.38
2022-08-25T13:53:30.724Z,94962.72
2022-08-25T13:56:02.610Z,94959.19
2022-08-25T13:58:44.396Z,94949.41
2022-08-25T14:01:22.244Z,94953.16
2022-08-25T14:04:29.730Z,94937.38
2022-08-25T14:07:12.449Z,94946.13
2022-08-25T14:10:00.379Z,94938.72
2022-08-25T14:12:45.701Z,94930.78
2022-08-25T14:15:20.202Z,94933.78
2022-08-25T14:18:15.159Z,94926.78
2022-08-25T14:20:50.805Z,94926.50
2022-08-25T14:23:22.890Z,94920.50
2022-08-25T14:25:52.114Z,94919.97
2022-08-25T14:28:23.069Z,94922.25
2022-08-25T14:30:54.159Z,94920.53
2022-08-25T14:33:31.751Z,94914.81
2022-08-25T14:36:00.819Z,94922.56
2022-08-25T14:38:29.211Z,94902.34
2022-08-25T14:40:59.207Z,94915.72
2022-08-25T14:43:31.442Z,94913.72
2022-08-25T14:46:07.286Z,94909.88
2022-08-25T14:48:45.594Z,94913.81
2022-08-25T14:51:15.590Z,94912.66
2022-08-25T14:53:43.778Z,94884.00
2022-08-25T14:56:11.479Z,94920.22
2022-08-25T14:58:51.273Z,94917.59
2022-08-25T15:01:29.368Z,94917.13
2022-08-25T15:04:06.515Z,94901.56
2022-08-25T15:06:35.919Z,94910.44
2022-08-25T15:09:10.883Z,94904.84
2022-08-25T15:11:44.138Z,94912.00
2022-08-25T15:14:15.970Z,94911.84
2022-08-25T15:16:56.473Z,94922.75
2022-08-25T15:19:27.215Z,94923.72
2022-08-25T15:21:58.062Z,94918.44
2022-08-25T15:24:28.412Z,94911.75
2022-08-25T15:26:58.864Z,94911.34
2022-08-25T15:29:30.321Z,94923.53
2022-08-25T15:32:00.350Z,94916.03
2022-08-25T15:34:35.409Z,94916.91
2022-08-25T15:37:12.470Z,94909.53
2022-08-25T15:39:41.470Z,94918.44
2022-08-25T15:42:12.383Z,94927.66
2022-08-25T15:44:40.789Z,94927.34
2022-08-25T15:47:12.672Z,94923.75
2022-08-25T15:49:40.640Z,94912.66
2022-08-25T15:52:07.970Z,94922.75
2022-08-25T15:54:35.589Z,94917.94
2022-08-25T15:57:04.480Z,94920.50
2022-08-25T15:59:40.225Z,94919.72
2022-08-25T16:02:15.029Z,94920.41
2022-08-25T16:04:42.919Z,94916.38
2022-08-25T16:07:13.377Z,94918.28
2022-08-25T16:09:41.933Z,94913.47
2022-08-25T16:12:09.470Z,94923.16
2022-08-25T16:14:38.850Z,94932.53
2022-08-25T16:17:06.749Z,94927.03
2022-08-25T16:19:35.836Z,94924.53
2022-08-25T16:22:09.038Z,94933.41
2022-08-25T16:24:40.963Z,94916.13
2022-08-25T16:27:12.175Z,94939.09
2022-08-25T16:29:44.137Z,94940.72
2022-08-25T16:32:14.213Z,94932.44
2022-08-25T16:34:44.245Z,94931.25
2022-08-25T16:37:12.631Z,94942.28
2022-08-25T16:39:44.317Z,94939.44
2022-08-25T16:42:13.154Z,94939.00
2022-08-25T16:44:40.919Z,94949.19
2022-08-25T16:47:08.920Z,94956.66
2022-08-25T16:49:37.121Z,94954.16
2022-08-25T16:52:28.591Z,94953.31
2022-08-25T16:55:16.144Z,94957.47
2022-08-25T16:57:47.444Z,94944.59
2022-08-25T17:00:19.305Z,94961.81
2022-08-25T17:02:47.904Z,94954.53
2022-08-25T17:05:16.139Z,94955.06
2022-08-25T17:08:06.788Z,94952.53
2022-08-25T17:10:36.839Z,94949.91
2022-08-25T17:13:04.966Z,94971.91
2022-08-25T17:15:32.593Z,94969.03
2022-08-25T17:18:00.259Z,94965.28
2022-08-25T17:20:27.940Z,94954.53
2022-08-25T17:22:55.330Z,94978.44
2022-08-25T17:25:23.049Z,94972.84
2022-08-25T17:27:54.881Z,94975.09
2022-08-25T17:30:22.809Z,94980.38
2022-08-25T17:32:54.180Z,94981.78
2022-08-25T17:35:22.110Z,94977.22
2022-08-25T17:37:50.456Z,94984.97
2022-08-25T17:40:18.713Z,94980.91
2022-08-25T17:42:46.260Z,94981.97
2022-08-25T17:45:13.690Z,94973.13
2022-08-25T17:47:42.187Z,94977.75
2022-08-25T17:50:10.480Z,94989.94
2022-08-25T17:52:38.019Z,94990.66
2022-08-25T17:55:06.229Z,94989.78
2022-08-25T17:57:36.091Z,94990.22
2022-08-25T18:00:12.789Z,94988.66
2022-08-25T18:02:40.991Z,94991.25
2022-08-25T18:05:09.309Z,94988.25
2022-08-25T18:07:37.009Z,94997.63
2022-08-25T18:10:06.219Z,94990.47
2022-08-25T18:12:34.249Z,94981.25
2022-08-25T18:15:06.050Z,94990.75
2022-08-25T18:17:36.679Z,94982.31
2022-08-25T18:20:09.819Z,94997.88
2022-08-25T18:22:38.950Z,94993.28
2022-08-25T18:25:11.511Z,94997.44
2022-08-25T18:27:39.380Z,95004.09
2022-08-25T18:30:08.410Z,95005.00
2022-08-25T18:32:36.571Z,95006.47
2022-08-25T18:35:06.223Z,95006.81
2022-08-25T18:37:52.399Z,95018.97
2022-08-25T18:40:23.026Z,95011.53
2022-08-25T18:42:58.509Z,95001.22
2022-08-25T18:45:32.869Z,95009.53
2022-08-25T18:48:01.382Z,94994.72
2022-08-25T18:50:33.692Z,95011.28
2022-08-25T18:53:02.199Z,95008.31
2022-08-25T18:55:29.790Z,95013.22
2022-08-25T18:57:58.338Z,95016.19
2022-08-25T19:00:28.559Z,95009.03
2022-08-25T19:02:58.198Z,95010.78
2022-08-25T19:05:32.040Z,95008.28
2022-08-25T19:08:02.416Z,95006.47
2022-08-25T19:10:31.197Z,95009.78
2022-08-25T19:13:07.754Z,95001.94
2022-08-25T19:15:37.840Z,95008.22
2022-08-25T19:18:09.966Z,95009.94
2022-08-25T19:20:39.761Z,95008.91
2022-08-25T19:23:09.029Z,95008.34
2022-08-25T19:25:41.647Z,95002.41
2022-08-25T19:28:13.129Z,95013.09
2022-08-25T19:30:46.439Z,95018.34
2022-08-25T19:33:42.474Z,95015.81
2022-08-25T19:36:08.406Z,95016.75
2022-08-25T19:38:37.871Z,95009.47
2022-08-25T19:41:10.633Z,94999.63
2022-08-25T19:43:56.781Z,95019.91
2022-08-25T19:46:36.015Z,95013.25
2022-08-25T19:49:11.490Z,94992.19
2022-08-25T19:51:44.255Z,95010.00
2022-08-25T19:54:15.229Z,95009.41
2022-08-25T19:56:54.546Z,94998.13
2022-08-25T19:59:25.922Z,95005.38
2022-08-25T20:01:53.978Z,95010.16
2022-08-25T20:04:21.509Z,95011.25
2022-08-25T20:06:55.300Z,95009.84
2022-08-25T20:09:39.432Z,95009.94
2022-08-25T20:12:10.636Z,95013.25
2022-08-25T20:14:38.503Z,94999.34
2022-08-25T20:17:14.669Z,95012.34
2022-08-25T20:19:53.900Z,95008.34
2022-08-25T20:22:25.389Z,95003.41
2022-08-25T20:24:59.680Z,94997.09
2022-08-25T20:27:39.820Z,95022.16
2022-08-25T20:30:12.544Z,95015.56
2022-08-25T20:32:40.059Z,95024.22
2022-08-25T20:35:12.927Z,95021.69
2022-08-25T20:37:43.410Z,95017.56
2022-08-25T20:40:14.949Z,95011.19
2022-08-25T20:42:43.570Z,95015.53
2022-08-25T20:45:14.671Z,95011.88
2022-08-25T20:47:42.119Z,95013.81
2022-08-25T20:50:10.429Z,95005.50
2022-08-25T20:52:42.416Z,95014.44
2022-08-25T20:55:12.589Z,95008.25
2022-08-25T20:57:40.640Z,95016.72
2022-08-25T21:00:10.149Z,95016.72
2022-08-25T21:02:38.536Z,95017.56
2022-08-25T21:05:07.499Z,95024.44
2022-08-25T21:07:35.771Z,95026.81
2022-08-25T21:10:10.647Z,95023.94
2022-08-25T21:12:43.050Z,95023.47
2022-08-25T21:15:18.230Z,95024.13
2022-08-25T21:17:54.368Z,95029.91
2022-08-25T21:20:24.011Z,95017.81
2022-08-25T21:22:52.259Z,95024.69
2022-08-25T21:25:21.904Z,95033.19
2022-08-25T21:27:49.416Z,95019.78
2022-08-25T21:30:18.229Z,95023.94
2022-08-25T21:32:53.550Z,95016.91
2022-08-25T21:35:23.899Z,95013.06
2022-08-25T21:37:53.367Z,95014.31
2022-08-25T21:40:23.183Z,95012.28
2022-08-25T21:42:52.160Z,95023.19
2022-08-25T21:45:22.429Z,95000.34
2022-08-25T21:47:50.283Z,95001.78
2022-08-25T21:50:20.379Z,94987.69
2022-08-25T21:52:48.646Z,95005.44
2022-08-25T21:55:22.800Z,95009.78
2022-08-25T21:57:50.141Z,95010.41
2022-08-25T22:00:19.221Z,95004.19
2022-08-25T22:02:49.550Z,95006.44
2022-08-25T22:05:17.130Z,95012.19
2022-08-25T22:07:44.490Z,95007.72
2022-08-25T22:10:17.952Z,95006.44
2022-08-25T22:12:48.439Z,95004.81
2022-08-25T22:15:17.916Z,94996.19
2022-08-25T22:17:48.152Z,94998.44
2022-08-25T22:20:17.282Z,94987.88
2022-08-25T22:22:44.959Z,94992.69
2022-08-25T22:25:13.274Z,94995.50
2022-08-25T22:27:40.759Z,94997.09
2022-08-25T22:30:08.965Z,94975.66
2022-08-25T22:32:36.570Z,94991.00
2022-08-25T22:35:05.057Z,94989.69
2022-08-25T22:37:32.759Z,94986.38
2022-08-25T22:40:03.035Z,94981.72
2022-08-25T22:42:31.558Z,94988.13
2022-08-25T22:44:59.269Z,94987.16
2022-08-25T22:47:27.089Z,94974.72
2022-08-25T22:49:55.840Z,94980.94
2022-08-25T22:52:32.008Z,94966.84
2022-08-25T22:55:03.112Z,94970.53
2022-08-25T22:57:31.595Z,94978.03
2022-08-25T22:59:59.440Z,94973.06
2022-08-25T23:02:30.256Z,94963.59
2022-08-25T23:04:58.296Z,94969.34
2022-08-25T23:07:28.952Z,94976.19
2022-08-25T23:10:00.010Z,94975.50
2022-08-25T23:12:27.609Z,94968.44
2022-08-25T23:14:54.919Z,94970.00
2022-08-25T23:17:22.520Z,94969.31
2022-08-25T23:19:50.059Z,94961.78
2022-08-25T23:22:17.809Z,94968.16
2022-08-25T23:24:48.659Z,94970.97
2022-08-25T23:27:18.740Z,94967.94
2022-08-25T23:29:49.300Z,94963.13
2022-08-25T23:32:18.388Z,94956.72
2022-08-25T23:34:47.156Z,94957.81
2022-08-25T23:37:18.463Z,94950.16
2022-08-25T23:39:49.411Z,94966.59
2022-08-25T23:42:17.939Z,94961.44
2022-08-25T23:44:45.770Z,94957.47
2022-08-25T23:47:13.460Z,94967.34
2022-08-25T23:49:40.790Z,94956.88
2022-08-25T23:52:08.219Z,94964.31
2022-08-25T23:54:36.132Z,94963.81
2022-08-25T23:57:04.071Z,94961.72
2022-08-25T23:59:34.440Z,94969.97
